Time;durP1;ratioP1;P1;durP2;ratioP2;P2;SDS_P1;SDS_P2;PMS_P1;PMS_P2;Temp;Humidity;BMP_temperature;BMP_pressure;BME280_temperature;BME280_humidity;BME280_pressure;Samples;Min_cycle;Max_cycle;Signal;HPM_P1;HPM_P2
2023/09/07 00:01:16;;;;;;;1999.90;999.90;;;14.60;78.30;;;;;;5082365;28;20117;-76
2023/09/07 00:03:42;;;;;;;1999.90;999.90;;;14.60;78.20;;;;;;5084685;28;20055;-75
2023/09/07 00:06:08;;;;;;;1999.90;999.90;;;14.60;78.20;;;;;;5081235;28;20070;-76
2023/09/07 00:08:34;;;;;;;1999.90;999.90;;;14.60;78.20;;;;;;5081584;28;20035;-75
2023/09/07 00:11:04;;;;;;;1999.90;999.90;;;14.40;78.40;;;;;;5080377;28;20036;-75
2023/09/07 00:13:29;;;;;;;1999.90;999.90;;;14.40;78.80;;;;;;5084512;28;21128;-76
2023/09/07 00:16:01;;;;;;;1999.90;999.90;;;14.30;78.70;;;;;;5084259;28;20032;-76
2023/09/07 00:18:27;;;;;;;1999.90;999.90;;;14.30;79.10;;;;;;5065023;28;20038;-75
2023/09/07 00:20:53;;;;;;;1999.90;999.90;;;14.10;79.70;;;;;;5080003;28;20024;-75
2023/09/07 00:23:19;;;;;;;1999.90;999.90;;;14.10;79.70;;;;;;5086229;28;20509;-75
2023/09/07 00:25:45;;;;;;;1999.90;999.90;;;14.00;79.90;;;;;;5085849;28;20024;-76
2023/09/07 00:28:11;;;;;;;1999.90;999.90;;;14.00;80.40;;;;;;5088707;28;20040;-76
2023/09/07 00:30:37;;;;;;;1999.90;999.90;;;14.00;80.40;;;;;;5090477;28;20478;-75
2023/09/07 00:33:03;;;;;;;1999.90;999.90;;;14.00;80.90;;;;;;5090169;28;20036;-76
2023/09/07 00:35:29;;;;;;;1999.90;999.90;;;13.90;81.30;;;;;;5085371;28;20032;-76
2023/09/07 00:37:55;;;;;;;1999.90;999.90;;;13.90;81.50;;;;;;5086403;28;20039;-76
2023/09/07 00:40:21;;;;;;;1999.90;999.90;;;13.90;81.40;;;;;;5085620;28;20028;-75
2023/09/07 00:42:47;;;;;;;1999.90;999.90;;;13.80;81.60;;;;;;5090877;28;20064;-75
2023/09/07 00:45:13;;;;;;;1999.90;999.90;;;13.80;82.10;;;;;;5088605;28;20110;-76
2023/09/07 00:47:38;;;;;;;1999.90;999.90;;;13.70;81.80;;;;;;5086873;28;20521;-75
2023/09/07 00:50:05;;;;;;;1999.90;999.90;;;13.60;81.90;;;;;;5087734;28;20043;-75
2023/09/07 00:52:32;;;;;;;1999.90;999.90;;;13.60;81.90;;;;;;5088791;28;20028;-76
2023/09/07 00:54:59;;;;;;;1999.90;999.90;;;13.50;82.20;;;;;;5087152;28;20050;-76
2023/09/07 00:57:25;;;;;;;1999.90;999.90;;;13.50;82.40;;;;;;5086228;28;20027;-76
2023/09/07 00:59:51;;;;;;;1999.90;999.90;;;13.50;82.60;;;;;;5084489;28;20474;-76
2023/09/07 01:02:16;;;;;;;1999.90;999.90;;;13.50;83.30;;;;;;5086499;28;20558;-76
2023/09/07 01:04:42;;;;;;;1999.90;999.90;;;13.50;83.90;;;;;;5087818;28;20050;-76
2023/09/07 01:07:18;;;;;;;1999.90;999.90;;;13.50;83.50;;;;;;5085355;28;20093;-76
2023/09/07 01:09:46;;;;;;;1999.90;999.90;;;13.50;83.60;;;;;;5086073;28;20024;-76
2023/09/07 01:12:15;;;;;;;1999.90;999.90;;;13.40;83.70;;;;;;5086771;28;20036;-76
2023/09/07 01:14:41;;;;;;;1999.90;999.90;;;13.40;84.20;;;;;;5085777;28;20567;-76
2023/09/07 01:17:08;;;;;;;1999.90;999.90;;;13.50;84.70;;;;;;5085095;28;20059;-76
2023/09/07 01:19:34;;;;;;;1999.90;999.90;;;13.50;84.50;;;;;;5086097;28;20101;-76
2023/09/07 01:22:00;;;;;;;1999.90;999.90;;;13.70;84.50;;;;;;5081631;28;20082;-76
2023/09/07 01:24:29;;;;;;;1999.90;999.90;;;13.70;84.10;;;;;;5085754;28;20047;-75
2023/09/07 01:26:57;;;;;;;1999.90;999.90;;;13.70;83.80;;;;;;5085377;28;20032;-75
2023/09/07 01:29:22;;;;;;;1999.90;999.90;;;13.70;83.70;;;;;;5086066;28;20073;-75
2023/09/07 01:31:48;;;;;;;1999.90;999.90;;;13.60;84.00;;;;;;5085278;28;20472;-76
2023/09/07 01:34:14;;;;;;;1999.90;999.90;;;13.60;83.90;;;;;;5080050;28;20039;-75
2023/09/07 01:36:40;;;;;;;1999.90;999.90;;;13.50;83.60;;;;;;5086995;28;20430;-75
2023/09/07 01:39:08;;;;;;;1999.90;999.90;;;13.30;83.90;;;;;;5086232;28;20110;-76
2023/09/07 01:41:34;;;;;;;1999.90;999.90;;;13.30;84.60;;;;;;5085031;28;20032;-76
2023/09/07 01:44:00;;;;;;;1999.90;999.90;;;13.20;84.40;;;;;;5083344;28;20040;-75
2023/09/07 01:46:26;;;;;;;1999.90;999.90;;;13.20;84.70;;;;;;5087391;28;20406;-75
2023/09/07 01:48:51;;;;;;;1999.90;999.90;;;13.20;84.90;;;;;;5085939;28;20472;-75
2023/09/07 01:51:17;;;;;;;1999.90;999.90;;;13.20;84.50;;;;;;5084358;28;20032;-75
2023/09/07 01:53:43;;;;;;;1999.90;999.90;;;13.20;84.40;;;;;;5085448;28;20059;-75
2023/09/07 01:56:09;;;;;;;1999.90;999.90;;;13.20;84.30;;;;;;5080428;28;20532;-76
2023/09/07 01:58:36;;;;;;;1999.90;999.90;;;13.20;84.20;;;;;;5089238;28;20028;-75
2023/09/07 02:01:02;;;;;;;1999.90;999.90;;;13.20;84.30;;;;;;5085955;28;20506;-75
2023/09/07 02:03:28;;;;;;;1999.90;999.90;;;13.10;84.50;;;;;;5086032;28;20036;-75
2023/09/07 02:05:54;;;;;;;1999.90;999.90;;;13.10;84.30;;;;;;5086178;28;20398;-75
2023/09/07 02:08:20;;;;;;;1999.90;999.90;;;13.20;84.50;;;;;;5089656;28;20046;-75
2023/09/07 02:10:45;;;;;;;1999.90;999.90;;;13.20;84.60;;;;;;5085328;28;20036;-75
2023/09/07 02:13:11;;;;;;;1999.90;999.90;;;13.20;84.50;;;;;;5087531;28;20101;-75
2023/09/07 02:15:38;;;;;;;1999.90;999.90;;;13.30;84.10;;;;;;5086147;28;20028;-75
2023/09/07 02:18:05;;;;;;;1999.90;999.90;;;13.30;83.70;;;;;;5087206;28;20048;-74
2023/09/07 02:20:32;;;;;;;1999.90;999.90;;;13.30;83.80;;;;;;5085440;28;20062;-76
2023/09/07 02:22:57;;;;;;;1999.90;999.90;;;13.30;83.90;;;;;;5079309;28;20044;-75
2023/09/07 02:25:24;;;;;;;1999.90;999.90;;;13.20;83.70;;;;;;5079058;28;20478;-76
2023/09/07 02:27:49;;;;;;;1999.90;999.90;;;13.10;84.00;;;;;;5084744;28;20028;-75
2023/09/07 02:30:15;;;;;;;1999.90;999.90;;;13.00;84.50;;;;;;5079840;28;20029;-76
2023/09/07 02:32:43;;;;;;;1999.90;999.90;;;13.10;84.80;;;;;;5084423;28;20485;-76
2023/09/07 02:35:08;;;;;;;1999.90;999.90;;;13.10;84.60;;;;;;5084404;28;20024;-75
2023/09/07 02:37:36;;;;;;;1999.90;999.90;;;13.10;85.00;;;;;;5086992;28;20058;-76
2023/09/07 02:40:03;;;;;;;1999.90;999.90;;;12.90;85.00;;;;;;5085470;28;20039;-76
2023/09/07 02:42:29;;;;;;;1999.90;999.90;;;12.80;85.00;;;;;;5085137;28;20046;-76
2023/09/07 02:44:55;;;;;;;1999.90;999.90;;;12.90;85.40;;;;;;5084353;28;20114;-75
2023/09/07 02:47:21;;;;;;;1999.90;999.90;;;12.90;85.20;;;;;;5087252;28;20070;-76
2023/09/07 02:49:47;;;;;;;1999.90;999.90;;;12.80;85.70;;;;;;5085066;28;20036;-76
2023/09/07 02:52:12;;;;;;;1999.90;999.90;;;12.70;86.10;;;;;;5087684;28;20122;-76
2023/09/07 02:54:38;;;;;;;1999.90;999.90;;;12.70;86.50;;;;;;5080470;28;20517;-75
2023/09/07 02:57:04;;;;;;;1999.90;999.90;;;12.70;86.40;;;;;;5082344;28;20035;-75
2023/09/07 02:59:30;;;;;;;1999.90;999.90;;;12.60;86.20;;;;;;5084244;28;20040;-76
2023/09/07 03:01:56;;;;;;;1999.90;999.90;;;12.50;85.60;;;;;;5085674;28;20092;-75
2023/09/07 03:04:22;;;;;;;1999.90;999.90;;;12.40;85.50;;;;;;5086264;28;20037;-76
2023/09/07 03:06:49;;;;;;;1999.90;999.90;;;12.20;85.70;;;;;;5086394;28;20035;-76
2023/09/07 03:09:14;;;;;;;1999.90;999.90;;;12.00;86.60;;;;;;5084169;28;20508;-75
2023/09/07 03:11:40;;;;;;;1999.90;999.90;;;12.00;86.80;;;;;;5087257;28;20115;-74
2023/09/07 03:14:06;;;;;;;1999.90;999.90;;;11.80;86.50;;;;;;5084096;28;20033;-75
2023/09/07 03:16:32;;;;;;;1999.90;999.90;;;11.80;86.60;;;;;;5082264;28;20058;-74
2023/09/07 03:18:57;;;;;;;1999.90;999.90;;;11.90;87.50;;;;;;5083043;28;20079;-74
2023/09/07 03:21:29;;;;;;;1999.90;999.90;;;12.00;88.20;;;;;;5086440;28;20496;-75
2023/09/07 03:23:57;;;;;;;1999.90;999.90;;;12.00;88.30;;;;;;5083893;28;20120;-77
2023/09/07 03:26:23;;;;;;;1999.90;999.90;;;12.00;87.90;;;;;;5083280;28;20033;-76
2023/09/07 03:28:49;;;;;;;1999.90;999.90;;;12.00;87.60;;;;;;5081617;28;20052;-76
2023/09/07 03:31:15;;;;;;;1999.90;999.90;;;12.00;88.40;;;;;;5080802;28;20036;-74
2023/09/07 03:33:40;;;;;;;1999.90;999.90;;;12.00;88.20;;;;;;5086948;28;20085;-76
2023/09/07 03:36:06;;;;;;;1999.90;999.90;;;12.10;89.30;;;;;;5086092;28;20074;-75
2023/09/07 03:38:31;;;;;;;1999.90;999.90;;;12.10;89.30;;;;;;5083865;28;20537;-75
2023/09/07 03:40:57;;;;;;;1999.90;999.90;;;12.10;89.10;;;;;;5085627;28;20032;-75
2023/09/07 03:43:23;;;;;;;1999.90;999.90;;;12.20;89.90;;;;;;5083734;28;20066;-76
2023/09/07 03:45:49;;;;;;;1999.90;999.90;;;12.10;89.80;;;;;;5085597;28;20036;-76
2023/09/07 03:48:14;;;;;;;1999.90;999.90;;;12.10;89.30;;;;;;5085635;28;20493;-75
2023/09/07 03:50:40;;;;;;;1999.90;999.90;;;12.20;89.70;;;;;;5084604;28;20089;-74
2023/09/07 03:53:06;;;;;;;1999.90;999.90;;;12.20;90.00;;;;;;5079961;28;20071;-75
2023/09/07 03:55:41;;;;;;;1999.90;999.90;;;12.30;90.30;;;;;;5083391;28;20068;-74
2023/09/07 03:58:08;;;;;;;1999.90;999.90;;;12.30;90.20;;;;;;5086272;28;20035;-76
2023/09/07 04:00:34;;;;;;;1999.90;999.90;;;12.20;89.90;;;;;;5086864;28;20048;-76
2023/09/07 04:02:59;;;;;;;1999.90;999.90;;;12.20;90.30;;;;;;5086368;28;20086;-74
2023/09/07 04:05:25;;;;;;;1999.90;999.90;;;12.30;90.20;;;;;;5089581;28;20032;-77
2023/09/07 04:07:51;;;;;;;1999.90;999.90;;;12.20;90.60;;;;;;5090419;28;20036;-75
2023/09/07 04:10:16;;;;;;;1999.90;999.90;;;12.20;90.30;;;;;;5087096;28;20055;-76
2023/09/07 04:12:42;;;;;;;1999.90;999.90;;;12.20;90.20;;;;;;5089065;28;20112;-76
2023/09/07 04:15:08;;;;;;;1999.90;999.90;;;12.10;90.20;;;;;;5084021;28;20032;-75
2023/09/07 04:17:40;;;;;;;1999.90;999.90;;;12.00;90.20;;;;;;5089183;28;20028;-75
2023/09/07 04:20:11;;;;;;;1999.90;999.90;;;12.10;90.40;;;;;;5087909;28;20029;-75
2023/09/07 04:22:38;;;;;;;1999.90;999.90;;;12.00;90.40;;;;;;5089459;28;20036;-74
2023/09/07 04:25:04;;;;;;;1999.90;999.90;;;12.00;90.20;;;;;;5088316;28;20131;-74
2023/09/07 04:27:30;;;;;;;1999.90;999.90;;;11.90;90.30;;;;;;5085215;28;20139;-76
2023/09/07 04:29:56;;;;;;;1999.90;999.90;;;11.90;90.40;;;;;;5083399;28;20039;-74
2023/09/07 04:32:22;;;;;;;1999.90;999.90;;;11.90;90.60;;;;;;5089551;28;20036;-74
2023/09/07 04:34:47;;;;;;;1999.90;999.90;;;11.90;90.50;;;;;;5085528;28;20472;-76
2023/09/07 04:37:13;;;;;;;1999.90;999.90;;;11.90;90.60;;;;;;5086006;28;20515;-75
2023/09/07 04:39:40;;;;;;;1999.90;999.90;;;11.80;90.50;;;;;;5082947;28;20021;-76
2023/09/07 04:42:05;;;;;;;1999.90;999.90;;;11.80;90.50;;;;;;5086017;28;20113;-76
2023/09/07 04:44:31;;;;;;;1999.90;999.90;;;11.80;90.60;;;;;;5087283;28;20032;-75
2023/09/07 04:46:57;;;;;;;1999.90;999.90;;;11.80;90.70;;;;;;5088411;28;20508;-74
2023/09/07 04:49:24;;;;;;;1999.90;999.90;;;11.80;91.00;;;;;;5087302;28;20024;-75
2023/09/07 04:51:53;;;;;;;1999.90;999.90;;;11.80;91.00;;;;;;5084422;28;20043;-74
2023/09/07 04:54:19;;;;;;;1999.90;999.90;;;11.90;91.10;;;;;;5087274;28;20143;-74
2023/09/07 04:56:44;;;;;;;1999.90;999.90;;;11.90;91.10;;;;;;5087620;28;20107;-74
2023/09/07 04:59:10;;;;;;;1999.90;999.90;;;11.90;91.10;;;;;;5086374;28;20036;-75
2023/09/07 05:01:36;;;;;;;1999.90;999.90;;;11.90;91.10;;;;;;5085424;28;20028;-76
2023/09/07 05:04:03;;;;;;;1999.90;999.90;;;12.00;91.20;;;;;;5080226;28;20052;-75
2023/09/07 05:06:29;;;;;;;1999.90;999.90;;;12.00;91.10;;;;;;5085838;28;20067;-75
2023/09/07 05:08:55;;;;;;;1999.90;999.90;;;12.00;91.10;;;;;;5081225;28;20454;-75
2023/09/07 05:11:20;;;;;;;1999.90;999.90;;;12.00;91.30;;;;;;5089134;28;20051;-76
2023/09/07 05:13:46;;;;;;;1999.90;999.90;;;12.00;91.30;;;;;;5082668;28;20032;-76
2023/09/07 05:16:12;;;;;;;1999.90;999.90;;;12.00;91.20;;;;;;5083372;28;20032;-75
2023/09/07 05:18:37;;;;;;;1999.90;999.90;;;12.10;91.30;;;;;;5080713;28;20020;-75
2023/09/07 05:21:15;;;;;;;1999.90;999.90;;;12.20;91.30;;;;;;5083552;28;21415;-74
2023/09/07 05:23:41;;;;;;;1999.90;999.90;;;12.20;91.00;;;;;;5080894;28;20028;-74
2023/09/07 05:26:07;;;;;;;1999.90;999.90;;;12.20;90.70;;;;;;5080792;28;20030;-75
2023/09/07 05:28:33;;;;;;;1999.90;999.90;;;12.20;90.70;;;;;;5082608;28;20037;-76
2023/09/07 05:30:59;;;;;;;1999.90;999.90;;;12.30;90.60;;;;;;5083217;28;20059;-75
2023/09/07 05:33:24;;;;;;;1999.90;999.90;;;12.30;90.50;;;;;;5084435;28;20043;-74
2023/09/07 05:35:50;;;;;;;1999.90;999.90;;;12.20;90.40;;;;;;5081356;28;20032;-76
2023/09/07 05:38:15;;;;;;;1999.90;999.90;;;12.30;90.60;;;;;;5080824;28;20058;-75
2023/09/07 05:40:43;;;;;;;1999.90;999.90;;;12.40;90.60;;;;;;5083296;28;20474;-75
2023/09/07 05:43:10;;;;;;;1999.90;999.90;;;12.50;90.70;;;;;;5081100;28;20119;-81
2023/09/07 05:45:38;;;;;;;1999.90;999.90;;;12.60;90.60;;;;;;5087581;28;20067;-79
2023/09/07 05:48:04;;;;;;;1999.90;999.90;;;12.70;90.40;;;;;;5084048;28;20028;-81
2023/09/07 05:50:31;;;;;;;1999.90;999.90;;;12.70;90.30;;;;;;5083715;28;20055;-80
2023/09/07 05:52:57;;;;;;;1999.90;999.90;;;12.80;90.20;;;;;;5085481;28;20509;-83
2023/09/07 05:55:23;;;;;;;1999.90;999.90;;;12.90;90.50;;;;;;5087459;28;20053;-78
2023/09/07 05:57:49;;;;;;;1999.90;999.90;;;13.00;90.70;;;;;;5088212;28;20093;-80
2023/09/07 06:00:16;;;;;;;1999.90;999.90;;;13.10;90.70;;;;;;5085845;28;20020;-81
2023/09/07 06:02:43;;;;;;;1999.90;999.90;;;13.20;90.60;;;;;;5083729;28;20063;-79
2023/09/07 06:05:09;;;;;;;1999.90;999.90;;;13.30;90.30;;;;;;5085124;28;20069;-78
2023/09/07 06:07:35;;;;;;;1999.90;999.90;;;13.30;90.30;;;;;;5085720;28;20167;-79
2023/09/07 06:10:01;;;;;;;1999.90;999.90;;;13.40;90.20;;;;;;5083869;28;20120;-81
2023/09/07 06:12:27;;;;;;;1999.90;999.90;;;13.40;90.10;;;;;;5084780;28;20043;-80
2023/09/07 06:14:52;;;;;;;1999.90;999.90;;;13.50;90.10;;;;;;5079508;28;20039;-78
2023/09/07 06:17:18;;;;;;;1999.90;999.90;;;13.60;89.60;;;;;;5084051;28;20036;-77
2023/09/07 06:19:45;;;;;;;1999.90;999.90;;;13.60;89.60;;;;;;5083925;28;20118;-83
2023/09/07 06:22:10;;;;;;;1999.90;999.90;;;13.70;89.10;;;;;;5086050;28;20038;-80
2023/09/07 06:24:36;;;;;;;1999.90;999.90;;;13.70;89.30;;;;;;5082713;28;20032;-82
2023/09/07 06:27:02;;;;;;;1999.90;999.90;;;13.80;88.30;;;;;;5085720;28;20039;-81
2023/09/07 06:29:27;;;;;;;1999.90;999.90;;;13.90;87.90;;;;;;5082706;28;20750;-80
2023/09/07 06:31:53;;;;;;;1999.90;999.90;;;13.90;87.90;;;;;;5082859;28;20020;-80
2023/09/07 06:34:19;;;;;;;1999.90;999.90;;;14.00;87.50;;;;;;5086090;28;20127;-80
2023/09/07 06:36:44;;;;;;;1999.90;999.90;;;14.10;87.40;;;;;;5079918;28;20037;-81
2023/09/07 06:39:10;;;;;;;1999.90;999.90;;;14.10;86.60;;;;;;5080886;28;20051;-82
2023/09/07 06:41:36;;;;;;;1999.90;999.90;;;14.10;86.60;;;;;;5083680;28;20024;-81
2023/09/07 06:44:01;;;;;;;1999.90;999.90;;;14.30;86.60;;;;;;5086226;28;20032;-81
2023/09/07 06:46:27;;;;;;;1999.90;999.90;;;14.40;86.50;;;;;;5082983;28;20601;-80
2023/09/07 06:48:53;;;;;;;1999.90;999.90;;;14.50;86.00;;;;;;5085684;28;20028;-79
2023/09/07 06:51:18;;;;;;;1999.90;999.90;;;14.40;85.50;;;;;;5083251;28;20031;-82
2023/09/07 06:53:44;;;;;;;1999.90;999.90;;;14.50;85.60;;;;;;5085137;28;20052;-80
2023/09/07 06:56:10;;;;;;;1999.90;999.90;;;14.60;85.10;;;;;;5085852;28;20052;-81
2023/09/07 06:58:35;;;;;;;1999.90;999.90;;;14.70;85.00;;;;;;5084975;28;20040;-81
2023/09/07 07:01:02;;;;;;;1999.90;999.90;;;14.70;85.20;;;;;;5081746;28;20027;-84
2023/09/07 07:03:29;;;;;;;1999.90;999.90;;;14.80;84.50;;;;;;5077806;28;20040;-81
2023/09/07 07:05:55;;;;;;;1999.90;999.90;;;14.90;84.10;;;;;;5085077;28;20078;-80
2023/09/07 07:08:21;;;;;;;1999.90;999.90;;;15.00;83.80;;;;;;5085331;28;20568;-79
2023/09/07 07:10:46;;;;;;;1999.90;999.90;;;15.00;83.70;;;;;;5082830;28;20100;-81
2023/09/07 07:13:12;;;;;;;1999.90;999.90;;;15.10;83.20;;;;;;5084703;28;20317;-82
2023/09/07 07:15:38;;;;;;;1999.90;999.90;;;15.20;84.40;;;;;;5082411;28;20047;-81
2023/09/07 07:18:08;;;;;;;1999.90;999.90;;;15.30;83.40;;;;;;5087179;28;20076;-77
2023/09/07 07:20:42;;;;;;;1999.90;999.90;;;15.50;83.80;;;;;;5085154;28;20500;-80
2023/09/07 07:23:07;;;;;;;1999.90;999.90;;;15.50;82.60;;;;;;5083029;28;20047;-80
2023/09/07 07:25:34;;;;;;;1999.90;999.90;;;15.50;83.50;;;;;;5089202;28;20039;-81
2023/09/07 07:28:01;;;;;;;1999.90;999.90;;;15.60;83.00;;;;;;5084911;28;20505;-81
2023/09/07 07:30:30;;;;;;;1999.90;999.90;;;15.70;82.10;;;;;;5086020;28;20039;-79
2023/09/07 07:32:56;;;;;;;1999.90;999.90;;;15.70;82.40;;;;;;5089091;28;20036;-80
2023/09/07 07:35:22;;;;;;;1999.90;999.90;;;15.80;80.70;;;;;;5086839;28;20078;-81
2023/09/07 07:37:49;;;;;;;1999.90;999.90;;;15.90;81.40;;;;;;5087675;28;20039;-79
2023/09/07 07:40:15;;;;;;;1999.90;999.90;;;16.00;81.30;;;;;;5086450;28;20029;-80
2023/09/07 07:42:41;;;;;;;1999.90;999.90;;;16.20;81.60;;;;;;5088339;28;20039;-80
2023/09/07 07:45:08;;;;;;;1999.90;999.90;;;16.30;80.40;;;;;;5087069;28;20032;-81
2023/09/07 07:47:33;;;;;;;1999.90;999.90;;;16.50;80.50;;;;;;5087257;28;20582;-81
2023/09/07 07:49:59;;;;;;;1999.90;999.90;;;16.60;79.60;;;;;;5085046;28;20042;-79
2023/09/07 07:52:25;;;;;;;1999.90;999.90;;;16.60;79.50;;;;;;5084955;28;20036;-79
2023/09/07 07:54:51;;;;;;;1999.90;999.90;;;16.80;79.00;;;;;;5094705;28;20047;-79
2023/09/07 07:57:16;;;;;;;1999.90;999.90;;;17.00;78.70;;;;;;5091199;28;20035;-79
2023/09/07 07:59:42;;;;;;;1999.90;999.90;;;17.00;78.10;;;;;;5089062;28;20036;-80
2023/09/07 08:02:08;;;;;;;1999.90;999.90;;;17.00;78.00;;;;;;5086382;28;20063;-78
2023/09/07 08:04:35;;;;;;;1999.90;999.90;;;17.20;78.20;;;;;;5088399;28;20039;-79
2023/09/07 08:07:04;;;;;;;1999.90;999.90;;;17.20;76.80;;;;;;5088343;28;20402;-81
2023/09/07 08:09:31;;;;;;;1999.90;999.90;;;17.50;76.70;;;;;;5085329;28;20028;-79
2023/09/07 08:11:57;;;;;;;1999.90;999.90;;;17.50;76.70;;;;;;5083170;28;20024;-79
2023/09/07 08:14:24;;;;;;;1999.90;999.90;;;17.50;76.30;;;;;;5086628;28;20899;-79
2023/09/07 08:16:50;;;;;;;1999.90;999.90;;;17.80;75.80;;;;;;5084302;28;20040;-82
2023/09/07 08:19:16;;;;;;;1999.90;999.90;;;17.90;74.20;;;;;;5090342;28;20081;-82
2023/09/07 08:21:42;;;;;;;1999.90;999.90;;;17.90;76.80;;;;;;5087745;28;20028;-79
2023/09/07 08:24:08;;;;;;;1999.90;999.90;;;18.10;75.40;;;;;;5085758;28;20035;-79
2023/09/07 08:26:36;;;;;;;1999.90;999.90;;;18.30;74.20;;;;;;5090914;28;20123;-79
2023/09/07 08:29:08;;;;;;;1999.90;999.90;;;18.40;74.60;;;;;;5086700;28;20044;-79
2023/09/07 08:31:35;;;;;;;1999.90;999.90;;;18.50;73.90;;;;;;5086033;28;20399;-78
2023/09/07 08:34:05;;;;;;;1999.90;999.90;;;18.60;73.90;;;;;;5086262;28;20044;-79
2023/09/07 08:36:34;;;;;;;1999.90;999.90;;;18.60;72.50;;;;;;5082285;28;20043;-78
2023/09/07 08:39:05;;;;;;;1999.90;999.90;;;19.00;74.10;;;;;;5092399;28;20110;-80
2023/09/07 08:41:32;;;;;;;1999.90;999.90;;;19.10;72.70;;;;;;5088598;28;20081;-78
2023/09/07 08:44:00;;;;;;;1999.90;999.90;;;19.10;71.00;;;;;;5085211;28;20082;-76
2023/09/07 08:46:27;;;;;;;1999.90;999.90;;;19.40;71.80;;;;;;5083122;28;20487;-78
2023/09/07 08:48:55;;;;;;;1999.90;999.90;;;19.60;70.50;;;;;;5088371;28;20050;-78
2023/09/07 08:51:22;;;;;;;1999.90;999.90;;;19.60;69.60;;;;;;5086893;28;20059;-80
2023/09/07 08:53:49;;;;;;;1999.90;999.90;;;19.90;69.50;;;;;;5087192;28;20079;-77
2023/09/07 08:56:16;;;;;;;1999.90;999.90;;;20.10;69.00;;;;;;5087617;28;20028;-79
2023/09/07 08:58:44;;;;;;;1999.90;999.90;;;20.10;68.30;;;;;;5086105;28;20531;-76
2023/09/07 09:01:10;;;;;;;1999.90;999.90;;;20.30;67.80;;;;;;5088699;28;20405;-76
2023/09/07 09:03:36;;;;;;;1999.90;999.90;;;20.20;68.30;;;;;;5084682;28;20039;-76
2023/09/07 09:06:04;;;;;;;1999.90;999.90;;;20.40;69.10;;;;;;5087782;28;20036;-76
2023/09/07 09:08:29;;;;;;;1999.90;999.90;;;20.50;68.20;;;;;;5086464;28;20037;-75
2023/09/07 09:11:05;;;;;;;1999.90;999.90;;;20.50;67.90;;;;;;5083699;28;20046;-76
2023/09/07 09:13:31;;;;;;;1999.90;999.90;;;20.70;66.40;;;;;;5083504;28;20083;-76
2023/09/07 09:16:00;;;;;;;1999.90;999.90;;;21.00;65.70;;;;;;5089706;28;20638;-77
2023/09/07 09:18:27;;;;;;;1999.90;999.90;;;21.00;67.20;;;;;;5088847;28;20039;-76
2023/09/07 09:20:55;;;;;;;1999.90;999.90;;;21.30;65.30;;;;;;5086877;28;20036;-77
2023/09/07 09:23:21;;;;;;;1999.90;999.90;;;21.10;65.40;;;;;;5081173;28;20044;-76
2023/09/07 09:25:49;;;;;;;1999.90;999.90;;;21.20;65.30;;;;;;5090619;28;20650;-76
2023/09/07 09:28:15;;;;;;;1999.90;999.90;;;21.40;64.60;;;;;;5083327;28;20557;-76
2023/09/07 09:30:45;;;;;;;1999.90;999.90;;;21.50;63.60;;;;;;5088510;28;20166;-75
2023/09/07 09:33:11;;;;;;;1999.90;999.90;;;21.80;65.70;;;;;;5088836;28;20036;-76
2023/09/07 09:35:38;;;;;;;1999.90;999.90;;;22.10;64.90;;;;;;5088693;28;20042;-76
2023/09/07 09:38:04;;;;;;;1999.90;999.90;;;22.30;63.20;;;;;;5084156;28;20582;-76
2023/09/07 09:40:37;;;;;;;1999.90;999.90;;;22.60;63.20;;;;;;5080598;28;20123;-76
2023/09/07 09:43:04;;;;;;;1999.90;999.90;;;22.40;61.60;;;;;;5087403;28;20390;-76
2023/09/07 09:45:30;;;;;;;1999.90;999.90;;;22.50;63.40;;;;;;5088042;28;20028;-75
2023/09/07 09:47:58;;;;;;;1999.90;999.90;;;22.70;60.90;;;;;;5089870;28;20036;-76
2023/09/07 09:50:24;;;;;;;1999.90;999.90;;;22.80;59.60;;;;;;5082204;28;20064;-76
2023/09/07 09:52:53;;;;;;;1999.90;999.90;;;22.90;60.30;;;;;;5084766;28;20070;-76
2023/09/07 09:55:19;;;;;;;1999.90;999.90;;;23.00;60.80;;;;;;5084569;28;20058;-76
2023/09/07 09:57:44;;;;;;;1999.90;999.90;;;23.30;61.90;;;;;;5087852;28;20769;-76
2023/09/07 10:02:55;;;;;;;1999.90;999.90;;;23.50;57.90;;;;;;5086833;28;20032;-76
2023/09/07 10:05:22;;;;;;;1999.90;999.90;;;23.30;61.20;;;;;;5084251;28;20137;-74
2023/09/07 10:07:50;;;;;;;1999.90;999.90;;;23.50;60.70;;;;;;5083778;28;20089;-76
2023/09/07 10:10:18;;;;;;;1999.90;999.90;;;23.70;58.70;;;;;;5076860;28;20035;-76
2023/09/07 10:12:55;;;;;;;1999.90;999.90;;;23.80;58.90;;;;;;5080168;28;20044;-76
2023/09/07 10:15:25;;;;;;;1999.90;999.90;;;23.60;58.10;;;;;;5079601;28;20514;-76
2023/09/07 10:17:56;;;;;;;1999.90;999.90;;;23.20;59.90;;;;;;5081939;28;20020;-76
2023/09/07 10:20:22;;;;;;;1999.90;999.90;;;23.60;60.30;;;;;;5084714;28;20039;-76
2023/09/07 10:22:48;;;;;;;1999.90;999.90;;;24.10;57.20;;;;;;5080579;28;20044;-76
2023/09/07 10:25:22;;;;;;;1999.90;999.90;;;24.30;57.70;;;;;;5084853;28;20051;-76
2023/09/07 10:27:48;;;;;;;1999.90;999.90;;;24.80;55.70;;;;;;5080461;28;20115;-75
2023/09/07 10:30:19;;;;;;;1999.90;999.90;;;24.70;56.40;;;;;;5085460;28;20112;-76
2023/09/07 10:32:45;;;;;;;1999.90;999.90;;;25.10;55.50;;;;;;5081528;28;20045;-77
2023/09/07 10:35:15;;;;;;;1999.90;999.90;;;25.10;57.30;;;;;;5083774;28;20024;-76
2023/09/07 10:37:43;;;;;;;1999.90;999.90;;;24.80;54.40;;;;;;5085947;28;20679;-76
2023/09/07 10:40:11;;;;;;;1999.90;999.90;;;25.00;55.50;;;;;;5081049;28;20374;-76
2023/09/07 10:42:38;;;;;;;1999.90;999.90;;;25.30;57.20;;;;;;5083871;28;20115;-76
2023/09/07 10:45:21;;;;;;;1999.90;999.90;;;26.30;53.50;;;;;;5081575;28;20050;-77
2023/09/07 10:47:47;;;;;;;1999.90;999.90;;;26.60;52.60;;;;;;5085050;28;20379;-78
2023/09/07 10:50:13;;;;;;;1999.90;999.90;;;26.70;51.70;;;;;;5084320;28;20028;-78
2023/09/07 10:52:41;;;;;;;1999.90;999.90;;;26.50;50.00;;;;;;5085516;28;20028;-78
2023/09/07 10:55:10;;;;;;;1999.90;999.90;;;26.90;48.50;;;;;;5084975;28;20045;-79
2023/09/07 10:57:46;;;;;;;1999.90;999.90;;;27.50;46.80;;;;;;5077835;28;20035;-78
2023/09/07 11:00:13;;;;;;;1999.90;999.90;;;27.70;46.20;;;;;;5082598;28;20085;-78
2023/09/07 11:02:40;;;;;;;1999.90;999.90;;;26.60;48.90;;;;;;5083238;28;20028;-79
2023/09/07 11:05:07;;;;;;;1999.90;999.90;;;26.80;51.10;;;;;;5087620;28;20120;-78
2023/09/07 11:07:33;;;;;;;1999.90;999.90;;;27.70;45.20;;;;;;5083649;28;20082;-79
2023/09/07 11:09:59;;;;;;;1999.90;999.90;;;27.60;46.20;;;;;;5081737;28;20035;-79
2023/09/07 11:12:25;;;;;;;1999.90;999.90;;;27.90;48.20;;;;;;5083374;28;20533;-78
2023/09/07 11:14:52;;;;;;;1999.90;999.90;;;28.00;45.70;;;;;;5079799;28;20050;-80
2023/09/07 11:17:18;;;;;;;1999.90;999.90;;;28.30;45.10;;;;;;5085323;28;20040;-79
2023/09/07 11:19:43;;;;;;;1999.90;999.90;;;27.60;48.10;;;;;;5084021;28;20035;-78
2023/09/07 11:22:13;;;;;;;1999.90;999.90;;;28.30;46.00;;;;;;5082528;28;20067;-79
2023/09/07 11:24:40;;;;;;;1999.90;999.90;;;28.60;44.50;;;;;;5077554;28;20376;-79
2023/09/07 11:27:05;;;;;;;1999.90;999.90;;;28.60;44.40;;;;;;5081421;28;20409;-79
2023/09/07 11:29:32;;;;;;;1999.90;999.90;;;29.90;41.50;;;;;;5084214;28;20127;-79
2023/09/07 11:32:11;;;;;;;1999.90;999.90;;;29.50;43.50;;;;;;5081218;28;20505;-79
2023/09/07 11:34:57;;;;;;;1999.90;999.90;;;29.40;44.10;;;;;;5083865;28;20040;-79
2023/09/07 11:37:26;;;;;;;1999.90;999.90;;;30.00;40.90;;;;;;5082616;28;20119;-79
2023/09/07 11:39:52;;;;;;;1999.90;999.90;;;29.40;41.00;;;;;;5081684;28;20028;-79
2023/09/07 11:42:17;;;;;;;1999.90;999.90;;;29.80;42.50;;;;;;5081322;28;20067;-79
2023/09/07 11:44:43;;;;;;;1999.90;999.90;;;29.60;39.90;;;;;;5081943;28;20032;-78
2023/09/07 11:47:09;;;;;;;1999.90;999.90;;;29.80;42.20;;;;;;5084136;28;20035;-79
2023/09/07 11:49:34;;;;;;;1999.90;999.90;;;29.10;41.80;;;;;;5080166;28;20035;-79
2023/09/07 11:52:00;;;;;;;1999.90;999.90;;;29.30;41.50;;;;;;5086178;28;20119;-79
2023/09/07 11:54:27;;;;;;;1999.90;999.90;;;29.90;41.50;;;;;;5086331;28;20565;-79
2023/09/07 11:56:53;;;;;;;1999.90;999.90;;;31.10;39.10;;;;;;5085701;28;20081;-79
2023/09/07 11:59:18;;;;;;;1999.90;999.90;;;30.70;39.90;;;;;;5083120;28;20032;-79